Time;durP1;ratioP1;P1;durP2;ratioP2;P2;SDS_P1;SDS_P2;PMS_P1;PMS_P2;Temp;Humidity;BMP_temperature;BMP_pressure;BME280_temperature;BME280_humidity;BME280_pressure;Samples;Min_cycle;Max_cycle;Signal;HPM_P1;HPM_P2
2023/04/18 00:01:06;;;;;;;37.63;23.02;;;6.40;99.90;;;;;;6219230;23;20048;-90
2023/04/18 00:03:57;;;;;;;36.97;24.73;;;6.50;99.90;;;;;;6216064;23;20022;-89
2023/04/18 00:06:46;;;;;;;37.90;24.52;;;6.50;99.90;;;;;;6215524;23;20031;-88
2023/04/18 00:09:34;;;;;;;42.17;23.67;;;6.50;99.90;;;;;;6217722;23;20068;-88
2023/04/18 00:12:21;;;;;;;39.10;24.80;;;6.50;99.90;;;;;;6216458;23;20103;-89
2023/04/18 00:15:10;;;;;;;35.17;23.25;;;6.50;99.90;;;;;;6216813;23;20029;-88
2023/04/18 00:17:59;;;;;;;35.85;23.75;;;6.50;99.90;;;;;;6215417;23;20079;-89
2023/04/18 00:20:49;;;;;;;36.83;22.58;;;6.50;97.80;;;;;;6224255;23;20021;-90
2023/04/18 00:23:37;;;;;;;33.92;22.48;;;6.50;24.30;;;;;;6225485;23;20028;-91
2023/04/18 00:26:26;;;;;;;40.03;23.05;;;6.50;1.00;;;;;;6237138;23;20056;-89
2023/04/18 00:29:14;;;;;;;35.83;24.88;;;6.50;1.00;;;;;;6218487;23;20032;-87
2023/04/18 00:32:01;;;;;;;40.03;24.70;;;6.50;20.30;;;;;;6218650;23;20086;-90
2023/04/18 00:34:49;;;;;;;39.60;24.10;;;6.50;23.60;;;;;;6215903;23;20025;-89
2023/04/18 00:37:36;;;;;;;38.10;25.83;;;6.50;13.20;;;;;;6218371;23;20028;-87
2023/04/18 00:40:24;;;;;;;39.90;24.52;;;6.50;1.00;;;;;;6224949;23;20032;-91
2023/04/18 00:43:17;;;;;;;39.22;24.27;;;6.50;7.60;;;;;;6223488;23;20028;-88
2023/04/18 00:46:05;;;;;;;41.13;25.05;;;6.50;27.30;;;;;;6221912;23;20083;-89
2023/04/18 00:48:52;;;;;;;37.05;25.38;;;6.50;77.20;;;;;;6217263;23;20051;-89
2023/04/18 00:51:42;;;;;;;38.45;24.88;;;6.50;99.90;;;;;;6218175;23;20444;-89
2023/04/18 00:54:29;;;;;;;40.90;25.42;;;6.50;99.90;;;;;;6215925;23;20412;-89
2023/04/18 00:57:17;;;;;;;40.28;24.88;;;6.50;99.90;;;;;;6214484;23;20028;-88
2023/04/18 01:00:11;;;;;;;40.55;23.52;;;6.50;99.90;;;;;;6238262;23;20020;-89
2023/04/18 01:02:58;;;;;;;42.40;25.83;;;6.50;99.90;;;;;;6216527;23;20122;-88
2023/04/18 01:05:46;;;;;;;35.20;23.40;;;6.50;99.90;;;;;;6216342;23;20035;-88
2023/04/18 01:08:36;;;;;;;33.60;23.17;;;6.50;99.90;;;;;;6222756;23;20033;-90
2023/04/18 01:11:24;;;;;;;37.08;24.92;;;6.50;99.90;;;;;;6239524;23;20451;-88
2023/04/18 01:14:15;;;;;;;38.72;24.67;;;6.50;99.90;;;;;;6229665;23;20131;-87
2023/04/18 01:17:02;;;;;;;40.58;23.67;;;6.50;99.90;;;;;;6247212;23;20028;-87
2023/04/18 01:19:50;;;;;;;37.70;23.67;;;6.50;99.90;;;;;;6236057;23;20028;-89
2023/04/18 01:22:37;;;;;;;37.58;24.40;;;6.50;99.90;;;;;;6237780;23;20024;-88
2023/04/18 01:25:24;;;;;;;36.15;23.73;;;6.50;99.90;;;;;;6238073;23;20044;-88
2023/04/18 01:28:13;;;;;;;40.85;23.33;;;6.50;99.90;;;;;;6216821;23;20032;-88
2023/04/18 01:31:01;;;;;;;36.97;22.58;;;6.50;99.90;;;;;;6223772;23;20076;-89
2023/04/18 01:33:50;;;;;;;38.60;23.30;;;6.50;99.90;;;;;;6249555;23;20435;-90
2023/04/18 01:36:40;;;;;;;32.55;21.13;;;6.50;37.20;;;;;;6225556;23;20099;-87
2023/04/18 01:39:37;;;;;;;35.55;22.45;;;6.40;12.90;;;;;;6218443;23;20036;-89
2023/04/18 01:42:24;;;;;;;35.17;21.77;;;6.50;7.60;;;;;;6218506;23;20080;-88
2023/04/18 01:45:13;;;;;;;33.90;20.50;;;6.50;5.90;;;;;;6219481;23;20380;-88
2023/04/18 01:48:04;;;;;;;34.63;22.02;;;6.40;1.00;;;;;;6197705;23;20131;-87
2023/04/18 01:50:54;;;;;;;34.53;22.63;;;6.40;1.00;;;;;;6218570;23;20028;-89
2023/04/18 01:53:42;;;;;;;34.33;22.23;;;6.40;1.00;;;;;;6216995;23;20541;-89
2023/04/18 01:56:29;;;;;;;33.38;22.42;;;6.40;1.00;;;;;;6225175;23;20323;-88
2023/04/18 01:59:16;;;;;;;32.88;21.73;;;6.40;1.00;;;;;;6218494;23;20492;-88
2023/04/18 02:02:04;;;;;;;34.90;23.25;;;6.40;1.00;;;;;;6217518;23;20193;-87
2023/04/18 02:04:51;;;;;;;33.60;22.08;;;6.40;6.70;;;;;;6218339;23;20024;-88
2023/04/18 02:07:39;;;;;;;35.53;23.10;;;6.40;42.10;;;;;;6218435;23;20025;-90
2023/04/18 02:10:27;;;;;;;35.85;22.45;;;6.40;83.80;;;;;;6218385;23;20028;-90
2023/04/18 02:13:14;;;;;;;33.55;22.67;;;6.40;99.90;;;;;;6218147;23;20114;-90
2023/04/18 02:16:01;;;;;;;34.15;22.77;;;6.40;99.90;;;;;;6220311;23;20028;-89
2023/04/18 02:18:51;;;;;;;41.30;23.40;;;6.40;99.90;;;;;;6220971;23;20052;-89
2023/04/18 02:21:40;;;;;;;34.05;21.83;;;6.40;99.90;;;;;;6221648;23;20024;-89
2023/04/18 02:24:27;;;;;;;36.58;23.02;;;6.40;99.90;;;;;;6217004;23;20025;-88
2023/04/18 02:27:15;;;;;;;32.40;20.27;;;6.40;99.90;;;;;;6239553;23;20031;-90
2023/04/18 02:30:03;;;;;;;32.70;20.98;;;6.40;99.90;;;;;;6239147;23;20322;-87
2023/04/18 02:32:51;;;;;;;37.05;21.13;;;6.40;99.90;;;;;;6222421;23;20024;-89
2023/04/18 02:35:41;;;;;;;32.30;20.58;;;6.50;99.90;;;;;;6222466;23;20038;-87
2023/04/18 02:38:30;;;;;;;31.42;20.15;;;6.40;15.10;;;;;;6227451;23;20039;-91
2023/04/18 02:41:18;;;;;;;29.70;19.40;;;6.40;1.00;;;;;;6218645;23;20385;-88
2023/04/18 02:44:07;;;;;;;31.65;19.70;;;6.40;1.00;;;;;;6227394;23;20052;-90
2023/04/18 02:46:54;;;;;;;28.75;19.35;;;6.40;1.00;;;;;;6216102;23;20038;-87
2023/04/18 02:49:41;;;;;;;32.00;19.80;;;6.40;99.90;;;;;;6217430;23;20497;-89
2023/04/18 02:52:29;;;;;;;33.97;21.30;;;6.40;99.90;;;;;;6238145;23;20079;-90
2023/04/18 02:55:17;;;;;;;32.33;20.65;;;6.40;99.90;;;;;;6226061;23;20020;-90
2023/04/18 02:58:04;;;;;;;37.15;21.48;;;6.40;99.90;;;;;;6221622;23;20044;-89
2023/04/18 03:00:53;;;;;;;32.30;20.67;;;6.40;99.90;;;;;;6218458;23;20028;-90
2023/04/18 03:03:41;;;;;;;35.10;22.20;;;6.40;99.90;;;;;;6216958;23;20102;-91
2023/04/18 03:06:28;;;;;;;35.03;21.65;;;6.30;99.90;;;;;;6218571;23;20086;-89
2023/04/18 03:09:15;;;;;;;35.28;21.98;;;6.30;99.90;;;;;;6217798;23;20032;-90
2023/04/18 03:12:03;;;;;;;32.40;21.05;;;6.30;99.90;;;;;;6217376;23;20028;-89
2023/04/18 03:14:50;;;;;;;33.10;22.30;;;6.30;99.90;;;;;;6217213;23;20029;-91
2023/04/18 03:17:38;;;;;;;37.35;21.98;;;6.30;99.90;;;;;;6215862;23;20036;-88
2023/04/18 03:20:26;;;;;;;34.97;21.77;;;6.30;99.90;;;;;;6237334;23;20331;-90
2023/04/18 03:23:15;;;;;;;35.42;22.55;;;6.30;99.90;;;;;;6217827;23;20035;-88
2023/04/18 03:26:05;;;;;;;34.78;23.30;;;6.30;99.90;;;;;;6215566;23;20107;-89
2023/04/18 03:28:54;;;;;;;35.55;22.35;;;6.30;1.00;;;;;;6216336;23;20082;-88
2023/04/18 03:31:45;;;;;;;36.00;22.88;;;6.20;1.00;;;;;;6223569;23;20106;-88
2023/04/18 03:34:32;;;;;;;37.40;22.75;;;6.20;1.00;;;;;;6216064;23;20098;-91
2023/04/18 03:37:19;;;;;;;37.35;23.10;;;6.20;1.00;;;;;;6217262;23;20032;-90
2023/04/18 03:40:07;;;;;;;36.33;24.05;;;6.20;1.00;;;;;;6215969;23;20078;-88
2023/04/18 03:42:55;;;;;;;33.78;22.95;;;6.20;1.00;;;;;;6214971;23;20020;-88
2023/04/18 03:45:46;;;;;;;36.13;23.15;;;6.20;1.00;;;;;;6217394;23;20126;-91
2023/04/18 03:48:35;;;;;;;38.03;23.48;;;6.10;42.20;;;;;;6215996;23;20021;-89
2023/04/18 03:51:23;;;;;;;38.00;23.98;;;6.10;99.90;;;;;;6214622;23;20039;-91
2023/04/18 03:54:10;;;;;;;39.47;23.50;;;6.10;99.90;;;;;;6239473;23;20055;-89
2023/04/18 03:57:03;;;;;;;36.80;23.58;;;6.10;99.90;;;;;;6225481;23;20031;-89
2023/04/18 03:59:51;;;;;;;39.55;25.55;;;6.10;99.90;;;;;;6226209;23;20040;-88
2023/04/18 04:02:42;;;;;;;37.15;23.60;;;6.00;99.90;;;;;;6239854;23;20017;-90
2023/04/18 04:05:30;;;;;;;35.55;23.25;;;6.10;99.90;;;;;;6218031;23;20379;-90
2023/04/18 04:08:17;;;;;;;38.38;24.00;;;6.00;99.90;;;;;;6217122;23;20046;-90
2023/04/18 04:11:07;;;;;;;33.17;22.48;;;6.00;99.90;;;;;;6216629;23;20056;-90
2023/04/18 04:13:54;;;;;;;36.42;23.40;;;5.90;99.90;;;;;;6215330;23;20036;-88
2023/04/18 04:16:42;;;;;;;37.28;23.48;;;6.00;1.00;;;;;;6236856;23;20028;-90
2023/04/18 04:19:32;;;;;;;35.92;22.90;;;6.00;1.00;;;;;;6223529;23;20081;-89
2023/04/18 04:22:19;;;;;;;38.42;23.58;;;6.00;1.00;;;;;;6214342;23;20090;-89
2023/04/18 04:25:07;;;;;;;38.33;23.77;;;5.90;15.20;;;;;;6214615;23;20021;-89
2023/04/18 04:27:54;;;;;;;38.80;24.17;;;5.90;90.40;;;;;;6216577;23;20028;-88
2023/04/18 04:30:42;;;;;;;37.25;24.05;;;5.90;99.90;;;;;;6215608;23;20099;-87
2023/04/18 04:33:32;;;;;;;35.65;23.63;;;5.90;99.90;;;;;;6215892;23;20039;-87
2023/04/18 04:36:21;;;;;;;42.60;24.13;;;5.90;99.90;;;;;;6215472;23;20025;-89
2023/04/18 04:39:10;;;;;;;36.00;23.67;;;6.00;99.90;;;;;;6219399;23;20047;-87
2023/04/18 04:42:03;;;;;;;41.35;23.58;;;5.90;99.90;;;;;;6236838;23;20040;-86
2023/04/18 04:44:53;;;;;;;40.53;24.42;;;5.90;1.00;;;;;;6215578;23;20029;-86
2023/04/18 04:47:40;;;;;;;41.40;24.63;;;5.90;1.00;;;;;;6216623;23;20048;-86
2023/04/18 04:50:27;;;;;;;44.95;26.15;;;5.90;1.00;;;;;;6216391;23;20052;-86
2023/04/18 04:53:14;;;;;;;40.25;24.40;;;5.90;1.00;;;;;;6216678;23;20099;-86
2023/04/18 04:56:03;;;;;;;43.22;24.48;;;5.90;1.00;;;;;;6215599;23;20040;-86
2023/04/18 04:58:52;;;;;;;40.80;24.50;;;5.90;94.50;;;;;;6216437;23;20021;-86
2023/04/18 05:01:41;;;;;;;41.03;25.67;;;5.90;99.90;;;;;;6215756;23;20020;-86
2023/04/18 05:04:29;;;;;;;37.72;23.75;;;5.90;99.90;;;;;;6215547;23;20029;-84
2023/04/18 05:07:16;;;;;;;41.70;26.30;;;5.90;99.90;;;;;;6225135;23;20025;-88
2023/04/18 05:10:04;;;;;;;40.42;25.88;;;5.90;99.90;;;;;;6217463;23;20086;-87
2023/04/18 05:12:53;;;;;;;41.33;25.23;;;6.00;99.90;;;;;;6221398;23;20095;-89
2023/04/18 05:15:40;;;;;;;41.85;24.52;;;5.90;99.90;;;;;;6223442;23;20127;-89
2023/04/18 05:18:27;;;;;;;37.42;24.92;;;5.90;99.90;;;;;;6218228;23;20032;-89
2023/04/18 05:21:15;;;;;;;38.80;25.70;;;5.90;99.90;;;;;;6195985;23;20020;-89
2023/04/18 05:24:04;;;;;;;38.47;24.58;;;5.90;99.90;;;;;;6216657;23;20032;-91
2023/04/18 05:26:52;;;;;;;39.42;25.10;;;6.00;99.90;;;;;;6213788;23;20083;-89
2023/04/18 05:29:39;;;;;;;37.70;24.48;;;6.00;99.90;;;;;;6237519;23;20024;-90
2023/04/18 05:32:27;;;;;;;39.08;25.35;;;6.00;99.90;;;;;;6214738;23;20028;-90
2023/04/18 05:35:16;;;;;;;44.55;26.52;;;6.00;99.90;;;;;;6216096;23;20025;-87
2023/04/18 05:38:06;;;;;;;41.70;23.85;;;6.00;99.90;;;;;;6195909;23;20032;-90
2023/04/18 05:40:54;;;;;;;36.47;24.77;;;6.00;99.90;;;;;;6216731;23;20524;-85
2023/04/18 05:44:05;;;;;;;38.80;24.10;;;6.00;99.90;;;;;;6188207;23;20033;-92
2023/04/18 06:07:34;;;;;;;40.70;25.08;;;6.20;99.90;;;;;;6139453;23;20086;-89
2023/04/18 06:10:32;;;;;;;;;;;;;;;;;;;;;
2023/04/18 06:18:49;;;;;;;37.08;23.50;;;6.40;99.90;;;;;;6076716;23;20041;-93
2023/04/18 06:22:23;;;;;;;37.13;22.90;;;6.40;1.00;;;;;;6070708;23;20035;-94
2023/04/18 06:33:52;;;;;;;35.47;22.83;;;6.50;99.90;;;;;;6011472;23;20031;-91
2023/04/18 06:41:21;;;;;;;38.38;23.42;;;6.40;54.40;;;;;;5929710;24;20353;-92
2023/04/18 06:44:52;;;;;;;38.75;23.92;;;6.50;1.00;;;;;;5953161;24;20028;-92
2023/04/18 07:01:03;;;;;;;36.83;22.77;;;6.70;99.90;;;;;;4618305;27;15083007;-89
2023/04/18 07:08:52;;;;;;;;;;;;;;;;;;;;;
2023/04/18 07:23:24;;;;;;;33.60;21.17;;;7.10;1.00;;;;;;4961164;28;20088;-85
2023/04/18 07:57:41;;;;;;;30.38;20.25;;;7.60;99.90;;;;;;4980920;28;20023;-92
2023/04/18 08:09:07;;;;;;;;;;;;;;;;;;;;;
2023/04/18 08:16:45;;;;;;;;;;;;;;;;;;;;;
2023/04/18 08:20:37;;;;;;;;;;;;;;;;;;;;;
2023/04/18 08:27:49;;;;;;;31.90;19.98;;;7.80;99.90;;;;;;4772167;30;20047;-86
2023/04/18 08:40:30;;;;;;;33.33;21.15;;;7.90;99.90;;;;;;4789871;29;20525;-90
2023/04/18 09:20:48;;;;;;;28.80;19.67;;;9.00;1.00;;;;;;4793055;29;20051;-89
2023/04/18 09:24:06;;;;;;;27.63;18.65;;;9.10;99.90;;;;;;4864451;29;20470;-90
2023/04/18 09:27:00;;;;;;;28.58;19.48;;;9.10;99.90;;;;;;4882570;28;20049;-90
2023/04/18 09:42:47;;;;;;;;;;;;;;;;;;;;;
2023/04/18 09:45:58;;;;;;;28.60;19.38;;;9.10;99.90;;;;;;4957395;28;20146;-91
2023/04/18 10:23:12;;;;;;;;;;;;;;;;;;;;;
2023/04/18 10:52:22;;;;;;;16.33;13.07;;;14.40;64.50;;;;;;4859355;29;20053;-92
2023/04/18 10:59:54;;;;;;;15.65;11.10;;;15.90;99.90;;;;;;4715392;30;20055;-88
2023/04/18 11:04:45;;;;;;;14.57;11.23;;;15.60;99.90;;;;;;4630670;30;20111;-91
2023/04/18 11:07:54;;;;;;;16.77;10.40;;;14.90;99.90;;;;;;4676197;30;20069;-90
2023/04/18 11:19:33;;;;;;;17.08;11.80;;;13.50;99.90;;;;;;4756815;30;20040;-89
2023/04/18 11:22:37;;;;;;;;;;;;;;;;;;;;;
2023/04/18 11:25:59;;;;;;;;;;;;;;;;;;;;;
2023/04/18 11:38:58;;;;;;;;;;;;;;;;;;;;;
2023/04/18 12:08:43;;;;;;;15.77;11.05;;;12.40;1.00;;;;;;4793058;29;20414;-91
2023/04/18 12:16:29;;;;;;;;;;;;;;;;;;;;;
2023/04/18 12:24:23;;;;;;;14.57;10.27;;;12.60;1.00;;;;;;4744782;29;20489;-89
2023/04/18 12:27:57;;;;;;;;;;;;;;;;;;;;;
2023/04/18 12:38:48;;;;;;;12.48;8.23;;;13.50;99.90;;;;;;4844529;29;19935;-92
2023/04/18 12:42:32;;;;;;;;;;;;;;;;;;;;;
2023/04/18 12:46:51;;;;;;;10.20;7.85;;;13.50;99.90;;;;;;4913484;29;20064;-91
2023/04/18 12:53:37;;;;;;;13.38;8.25;;;14.00;99.90;;;;;;4881976;29;20081;-89
2023/04/18 12:56:37;;;;;;;10.80;8.13;;;14.00;99.90;;;;;;4942562;28;20480;-90
2023/04/18 12:59:40;;;;;;;11.52;8.77;;;13.50;99.90;;;;;;4948024;28;20043;-89
2023/04/18 13:02:49;;;;;;;12.30;8.27;;;13.40;99.90;;;;;;4888884;29;20188;-88
2023/04/18 13:09:52;;;;;;;;;;;;;;;;;;;;;
2023/04/18 13:30:34;;;;;;;10.93;7.82;;;13.40;99.90;;;;;;4702110;30;20037;-90
2023/04/18 13:33:41;;;;;;;9.93;7.72;;;12.70;99.90;;;;;;4675840;30;20556;-91
2023/04/18 13:54:18;;;;;;;;;;;;;;;;;;;;;
2023/04/18 13:57:59;;;;;;;13.10;7.18;;;12.90;99.90;;;;;;4659954;30;20058;-91
2023/04/18 14:15:18;;;;;;;11.10;7.63;;;13.00;99.90;;;;;;5046196;28;20037;-94
2023/04/18 14:18:45;;;;;;;9.63;7.55;;;13.00;99.90;;;;;;5058035;28;20041;-92
2023/04/18 14:22:33;;;;;;;8.38;6.80;;;12.80;99.90;;;;;;5047241;28;20060;-91
2023/04/18 14:42:36;;;;;;;;;;;;;;;;;;;;;
2023/04/18 15:28:17;;;;;;;;;;;;;;;;;;;;;
2023/04/18 16:01:06;;;;;;;8.82;6.45;;;11.80;99.90;;;;;;4845596;29;20245;-93
2023/04/18 16:04:19;;;;;;;8.63;6.35;;;11.80;99.90;;;;;;4916444;29;20262;-91
2023/04/18 16:07:19;;;;;;;9.23;7.13;;;11.80;99.90;;;;;;4922663;28;20089;-91
2023/04/18 16:10:08;;;;;;;8.52;6.85;;;11.90;99.90;;;;;;4970796;28;20040;-89
2023/04/18 16:12:58;;;;;;;11.13;7.22;;;11.90;99.90;;;;;;4961003;28;20331;-92
2023/04/18 16:15:46;;;;;;;9.50;7.07;;;11.80;99.90;;;;;;4961252;28;20055;-91
2023/04/18 16:18:34;;;;;;;8.38;6.85;;;11.80;99.90;;;;;;5032656;28;20061;-92
2023/04/18 16:21:35;;;;;;;9.13;6.78;;;11.90;99.90;;;;;;5050686;28;20045;-92
2023/04/18 16:24:24;;;;;;;8.60;6.80;;;11.90;99.90;;;;;;5060020;28;20044;-92
2023/04/18 16:27:12;;;;;;;8.52;6.82;;;11.80;99.90;;;;;;5044594;28;20127;-89
2023/04/18 16:30:02;;;;;;;8.35;6.93;;;11.80;99.90;;;;;;5054844;28;20085;-90
2023/04/18 16:32:50;;;;;;;8.95;6.47;;;11.80;99.90;;;;;;5052459;28;20053;-90
2023/04/18 16:35:39;;;;;;;8.40;6.68;;;11.80;99.90;;;;;;5042029;28;20049;-90
2023/04/18 16:38:26;;;;;;;9.43;6.28;;;11.80;99.90;;;;;;5052103;28;20049;-92
2023/04/18 16:41:14;;;;;;;9.63;6.57;;;11.80;99.90;;;;;;5051334;28;20045;-90
2023/04/18 16:44:04;;;;;;;9.13;5.95;;;11.80;99.90;;;;;;5049059;28;20120;-92
2023/04/18 16:46:53;;;;;;;6.68;5.80;;;11.90;99.90;;;;;;5041569;28;20045;-93
2023/04/18 16:50:08;;;;;;;10.80;6.38;;;11.90;99.90;;;;;;5062056;28;20048;-93
2023/04/18 16:52:55;;;;;;;8.10;5.93;;;11.90;99.90;;;;;;5049718;28;20045;-92
2023/04/18 16:55:43;;;;;;;7.85;6.53;;;11.80;99.90;;;;;;5039826;28;20060;-92
2023/04/18 16:58:30;;;;;;;8.63;6.25;;;11.70;99.90;;;;;;5060038;28;20045;-88
2023/04/18 17:01:18;;;;;;;9.02;6.28;;;11.60;99.90;;;;;;5037883;28;20257;-89
2023/04/18 17:04:10;;;;;;;10.50;7.40;;;11.50;99.90;;;;;;5065847;28;20061;-92
2023/04/18 17:06:59;;;;;;;8.47;6.23;;;11.40;99.90;;;;;;5035486;28;20041;-91
2023/04/18 17:10:04;;;;;;;7.85;6.35;;;11.30;99.90;;;;;;5053036;28;20053;-90
2023/04/18 17:12:52;;;;;;;9.32;6.32;;;11.30;99.90;;;;;;5062886;28;20053;-91
2023/04/18 17:15:42;;;;;;;9.45;7.22;;;11.20;99.90;;;;;;5030741;28;20051;-93
2023/04/18 17:18:29;;;;;;;9.27;6.75;;;11.20;99.90;;;;;;5043578;28;20045;-92
2023/04/18 17:21:36;;;;;;;11.48;7.80;;;11.10;99.90;;;;;;5038037;28;20095;-89
2023/04/18 17:24:24;;;;;;;12.07;7.15;;;11.10;1.00;;;;;;5045518;28;20095;-90
2023/04/18 17:27:14;;;;;;;10.00;7.93;;;11.10;1.00;;;;;;5053515;28;20128;-93
2023/04/18 17:30:02;;;;;;;10.93;8.18;;;11.00;1.00;;;;;;5039913;28;20045;-91
2023/04/18 17:32:49;;;;;;;9.98;8.48;;;11.00;1.00;;;;;;5040510;28;20049;-89
2023/04/18 17:35:40;;;;;;;10.80;7.88;;;11.00;1.00;;;;;;5038405;28;20120;-92
2023/04/18 17:38:27;;;;;;;12.05;8.35;;;10.90;1.00;;;;;;5050869;28;20339;-88
2023/04/18 17:41:21;;;;;;;10.25;8.27;;;10.90;1.00;;;;;;5039289;28;20657;-87
2023/04/18 17:44:09;;;;;;;10.52;8.20;;;10.90;1.00;;;;;;5053564;28;20113;-91
2023/04/18 17:47:00;;;;;;;11.10;8.35;;;10.90;1.00;;;;;;5041012;28;20045;-90
2023/04/18 17:49:48;;;;;;;11.68;8.25;;;10.80;1.00;;;;;;5060619;28;20049;-89
2023/04/18 17:52:36;;;;;;;9.50;7.70;;;10.80;1.00;;;;;;5045574;28;20107;-90
2023/04/18 17:55:26;;;;;;;15.15;9.32;;;10.80;1.00;;;;;;5038912;28;20092;-92
2023/04/18 17:58:16;;;;;;;;;;;10.70;1.00;;;;;;5053039;28;20091;-89
2023/04/18 18:01:29;;;;;;;11.57;8.95;;;10.70;1.00;;;;;;5053837;28;19920;-89
2023/04/18 18:04:25;;;;;;;11.68;9.23;;;10.70;1.00;;;;;;5054961;28;20052;-91
2023/04/18 18:07:47;;;;;;;11.07;9.25;;;10.60;1.00;;;;;;5061650;28;20123;-94
2023/04/18 18:11:07;;;;;;;11.07;9.07;;;10.60;1.00;;;;;;5042204;28;20075;-94
2023/04/18 18:18:28;;;;;;;10.48;9.13;;;10.50;1.00;;;;;;4949258;28;20064;-90
2023/04/18 18:29:18;;;;;;;;;;;;;;;;;;;;;
2023/04/18 18:32:46;;;;;;;13.23;8.85;;;10.40;1.00;;;;;;4978983;28;20108;-93
2023/04/18 18:35:47;;;;;;;13.32;9.45;;;10.40;1.00;;;;;;5030292;28;20048;-90
2023/04/18 18:38:47;;;;;;;12.48;8.93;;;10.30;1.00;;;;;;5062973;28;20075;-90
2023/04/18 18:41:39;;;;;;;10.57;8.98;;;10.30;1.00;;;;;;5081757;28;20362;-91
2023/04/18 18:44:45;;;;;;;12.70;9.73;;;10.30;1.00;;;;;;5056404;28;20073;-92
2023/04/18 18:47:57;;;;;;;12.13;9.63;;;10.20;1.00;;;;;;5081110;28;20466;-92
2023/04/18 18:50:57;;;;;;;13.73;10.07;;;10.30;1.00;;;;;;5063497;28;20048;-91
2023/04/18 18:54:27;;;;;;;14.95;10.35;;;10.20;1.00;;;;;;5042512;28;20052;-92
2023/04/18 18:57:22;;;;;;;12.77;8.95;;;10.20;10.80;;;;;;5034977;28;20120;-91
2023/04/18 19:00:16;;;;;;;11.77;9.73;;;10.20;18.80;;;;;;5053646;28;20038;-92
2023/04/18 19:03:11;;;;;;;12.43;9.73;;;10.20;35.40;;;;;;5038152;28;20045;-93
2023/04/18 19:06:02;;;;;;;12.38;9.77;;;10.20;43.40;;;;;;5036270;28;20085;-92
2023/04/18 19:09:07;;;;;;;13.02;9.73;;;10.20;57.40;;;;;;5049417;28;20486;-92
2023/04/18 19:12:26;;;;;;;;;;;10.20;65.70;;;;;;5056123;28;20190;-91
2023/04/18 19:15:15;;;;;;;13.80;10.40;;;10.10;84.30;;;;;;5071768;28;19920;-91
2023/04/18 19:18:08;;;;;;;17.63;10.77;;;10.10;97.70;;;;;;5053674;28;20558;-91
2023/04/18 19:20:56;;;;;;;15.85;10.82;;;10.10;99.90;;;;;;5039732;28;20040;-92
2023/04/18 19:23:43;;;;;;;22.88;10.93;;;10.20;99.90;;;;;;5033802;28;20041;-93
2023/04/18 19:26:31;;;;;;;16.17;11.35;;;10.10;99.90;;;;;;5039731;28;20041;-94
2023/04/18 19:29:21;;;;;;;15.50;10.43;;;10.10;99.90;;;;;;5058352;28;20175;-91
2023/04/18 19:32:11;;;;;;;15.73;10.25;;;10.10;99.90;;;;;;5053736;28;20470;-91
2023/04/18 19:35:10;;;;;;;16.27;10.07;;;10.10;99.90;;;;;;5041458;28;20120;-93
2023/04/18 19:38:07;;;;;;;15.00;10.20;;;10.10;99.90;;;;;;5056242;28;20048;-92
2023/04/18 19:44:08;;;;;;;16.05;10.43;;;10.00;99.90;;;;;;5032649;28;20048;-90
2023/04/18 19:47:56;;;;;;;15.45;9.80;;;10.00;99.90;;;;;;5058855;28;20056;-92
2023/04/18 19:50:44;;;;;;;13.35;9.75;;;10.00;99.90;;;;;;5049054;28;20064;-90
2023/04/18 19:53:36;;;;;;;17.30;10.63;;;10.00;99.90;;;;;;5049950;28;20132;-93
2023/04/18 19:56:28;;;;;;;17.90;10.77;;;10.00;99.90;;;;;;5055832;28;20052;-90
2023/04/18 19:59:16;;;;;;;14.80;10.23;;;9.90;99.90;;;;;;5036070;28;20045;-91
2023/04/18 20:02:03;;;;;;;12.73;10.57;;;9.90;99.90;;;;;;5057698;28;20044;-89
2023/04/18 20:04:52;;;;;;;13.80;10.82;;;9.90;99.90;;;;;;5048553;28;20045;-89
2023/04/18 20:07:40;;;;;;;15.70;11.93;;;9.90;99.90;;;;;;5053599;28;20040;-90
2023/04/18 20:10:29;;;;;;;13.73;10.57;;;9.80;99.90;;;;;;5055963;28;20095;-88
2023/04/18 20:13:16;;;;;;;15.85;11.27;;;9.80;99.90;;;;;;5052479;28;20047;-89
2023/04/18 20:16:08;;;;;;;16.83;11.23;;;9.80;99.90;;;;;;5051795;28;20397;-90
2023/04/18 20:18:55;;;;;;;15.57;11.45;;;9.80;99.90;;;;;;5038499;28;20049;-91
2023/04/18 20:21:43;;;;;;;16.77;11.38;;;9.80;99.90;;;;;;5044246;28;20045;-91
2023/04/18 20:24:32;;;;;;;17.38;11.98;;;9.70;99.90;;;;;;5053811;28;20140;-88
2023/04/18 20:27:20;;;;;;;16.15;11.23;;;9.70;99.90;;;;;;5054727;28;20470;-89
2023/04/18 20:30:07;;;;;;;17.92;11.88;;;9.70;99.90;;;;;;5053804;28;20094;-90
2023/04/18 20:32:55;;;;;;;19.48;12.43;;;9.70;99.90;;;;;;5055773;28;20064;-92
2023/04/18 20:35:43;;;;;;;34.88;20.33;;;9.60;99.90;;;;;;5038099;28;20057;-90
2023/04/18 20:38:33;;;;;;;23.48;15.50;;;9.60;99.90;;;;;;5041153;28;20517;-89
2023/04/18 20:44:42;;;;;;;17.45;11.52;;;9.60;99.90;;;;;;5053386;28;20068;-92
2023/04/18 20:47:32;;;;;;;15.95;11.65;;;9.60;99.90;;;;;;5035022;28;20045;-92
2023/04/18 20:50:20;;;;;;;16.30;12.13;;;9.60;99.90;;;;;;5050404;28;20391;-88
2023/04/18 20:53:11;;;;;;;14.88;11.25;;;9.50;99.90;;;;;;5054690;28;20124;-91
2023/04/18 20:56:01;;;;;;;16.38;12.25;;;9.50;99.90;;;;;;5037624;28;20148;-91
2023/04/18 20:58:49;;;;;;;14.05;11.43;;;9.50;99.90;;;;;;5049333;28;20045;-92
2023/04/18 21:01:36;;;;;;;16.80;12.27;;;9.50;99.90;;;;;;5035967;28;20037;-91
2023/04/18 21:04:24;;;;;;;14.73;11.77;;;9.50;1.00;;;;;;5050510;28;20059;-92
2023/04/18 21:07:14;;;;;;;15.55;12.23;;;9.40;1.00;;;;;;5041775;28;20048;-92
2023/04/18 21:10:04;;;;;;;18.13;11.85;;;9.40;1.00;;;;;;5047395;28;20065;-90
2023/04/18 21:12:54;;;;;;;19.23;12.45;;;9.40;1.00;;;;;;5054993;28;20078;-92
2023/04/18 21:15:43;;;;;;;16.80;13.32;;;9.30;1.00;;;;;;5057619;28;20496;-87
2023/04/18 21:18:33;;;;;;;17.23;12.82;;;9.30;1.00;;;;;;5051127;28;20067;-87
2023/04/18 21:21:26;;;;;;;16.55;13.35;;;9.30;1.00;;;;;;5049005;28;20159;-94
2023/04/18 21:24:27;;;;;;;19.48;13.27;;;9.30;1.00;;;;;;5039687;28;20055;-89
2023/04/18 21:27:16;;;;;;;15.90;12.05;;;9.20;18.10;;;;;;5053981;28;20040;-92
2023/04/18 21:30:06;;;;;;;21.17;13.63;;;9.20;73.40;;;;;;5037237;28;20064;-91
2023/04/18 21:32:57;;;;;;;20.40;12.90;;;9.10;99.90;;;;;;5049880;28;20118;-90
2023/04/18 21:35:45;;;;;;;17.40;12.73;;;9.20;99.90;;;;;;5063018;28;20052;-89
2023/04/18 21:38:34;;;;;;;17.85;12.98;;;9.10;99.90;;;;;;5038999;28;20045;-91
2023/04/18 21:41:26;;;;;;;21.48;13.90;;;9.10;99.90;;;;;;5042207;28;20116;-90
2023/04/18 21:44:17;;;;;;;17.35;13.55;;;9.10;99.90;;;;;;5053750;28;20040;-89
2023/04/18 21:47:05;;;;;;;20.45;14.80;;;9.10;99.90;;;;;;5044269;28;20134;-93
2023/04/18 21:49:52;;;;;;;21.92;14.70;;;9.00;99.90;;;;;;5051647;28;20052;-92
2023/04/18 21:52:39;;;;;;;20.13;13.52;;;9.00;99.90;;;;;;5048693;28;20140;-92
2023/04/18 21:55:33;;;;;;;20.20;14.48;;;8.90;99.90;;;;;;5051839;28;20033;-91
2023/04/18 21:58:21;;;;;;;17.45;13.57;;;9.00;99.90;;;;;;5050224;28;20045;-90
2023/04/18 22:01:09;;;;;;;21.45;13.18;;;9.00;99.90;;;;;;5048089;28;20033;-92
2023/04/18 22:03:56;;;;;;;20.20;14.18;;;9.00;99.90;;;;;;5033758;28;20053;-90
2023/04/18 22:06:43;;;;;;;18.85;14.13;;;8.90;99.90;;;;;;5044068;28;20497;-89
2023/04/18 22:09:36;;;;;;;19.52;12.82;;;8.90;99.90;;;;;;5041073;28;20041;-92
2023/04/18 22:12:25;;;;;;;19.58;13.55;;;8.90;99.90;;;;;;5050123;28;20174;-89
2023/04/18 22:15:16;;;;;;;18.75;13.55;;;8.90;99.90;;;;;;5050880;28;20049;-94
2023/04/18 22:18:05;;;;;;;17.98;13.90;;;8.90;99.90;;;;;;4993896;28;20449;-89
2023/04/18 22:20:54;;;;;;;17.92;13.85;;;8.90;99.90;;;;;;5050673;28;20359;-89
2023/04/18 22:23:41;;;;;;;20.27;13.98;;;8.90;99.90;;;;;;5051415;28;20051;-89
2023/04/18 22:26:28;;;;;;;20.40;13.95;;;8.80;99.90;;;;;;5033504;28;20100;-90
2023/04/18 22:29:19;;;;;;;19.02;13.35;;;8.80;99.90;;;;;;5050729;28;20076;-88
2023/04/18 22:32:07;;;;;;;18.15;13.98;;;8.80;99.90;;;;;;5058804;28;20049;-90
2023/04/18 22:34:54;;;;;;;18.50;14.43;;;8.80;99.90;;;;;;5051832;28;20049;-91
2023/04/18 22:37:41;;;;;;;24.38;15.20;;;8.80;1.00;;;;;;5046585;28;20135;-86
2023/04/18 22:40:28;;;;;;;20.33;15.00;;;8.80;1.00;;;;;;5062674;28;20052;-89
2023/04/18 22:43:21;;;;;;;20.80;14.45;;;8.80;1.00;;;;;;5053759;28;20125;-89
2023/04/18 22:46:10;;;;;;;21.77;14.13;;;8.80;1.00;;;;;;5025981;28;20056;-88
2023/04/18 22:49:00;;;;;;;18.73;13.93;;;8.80;1.00;;;;;;5051278;28;20065;-89
2023/04/18 22:51:47;;;;;;;20.45;14.60;;;8.70;1.00;;;;;;5052580;28;20037;-89
2023/04/18 22:54:39;;;;;;;21.13;14.10;;;8.70;1.00;;;;;;5055205;28;20036;-89
2023/04/18 22:57:27;;;;;;;20.90;15.43;;;8.70;1.00;;;;;;5051795;28;20057;-90
2023/04/18 23:00:36;;;;;;;21.88;14.18;;;8.70;1.00;;;;;;5047884;28;20069;-90
2023/04/18 23:03:30;;;;;;;17.88;13.48;;;8.70;1.00;;;;;;5054038;28;20048;-90
2023/04/18 23:06:27;;;;;;;21.17;14.75;;;8.70;1.00;;;;;;5056860;28;20108;-91
2023/04/18 23:09:18;;;;;;;18.95;13.95;;;8.70;1.00;;;;;;5045182;28;20052;-91
2023/04/18 23:12:05;;;;;;;20.73;15.57;;;8.70;1.00;;;;;;5063442;28;20048;-91